createdAt,value
2019-02-27T00:03:00.014Z,6.40
2019-02-27T00:06:23.291Z,6.30
2019-02-27T00:09:46.524Z,6.30
2019-02-27T00:13:09.662Z,6.20
2019-02-27T00:16:33.946Z,6.20
2019-02-27T00:19:57.056Z,6.20
2019-02-27T00:23:23.894Z,6.10
2019-02-27T00:26:45.126Z,6.10
2019-02-27T00:30:09.508Z,6.00
2019-02-27T00:33:34.419Z,6.00
2019-02-27T00:36:57.589Z,6.00
2019-02-27T00:40:21.070Z,5.90
2019-02-27T00:43:44.492Z,5.90
2019-02-27T00:47:07.591Z,5.90
2019-02-27T00:50:31.093Z,5.90
2019-02-27T00:53:55.911Z,5.90
2019-02-27T00:57:20.848Z,6.00
2019-02-27T01:00:44.324Z,6.00
2019-02-27T01:04:07.419Z,6.00
2019-02-27T01:07:30.541Z,5.90
2019-02-27T01:10:53.681Z,5.90
2019-02-27T01:14:16.789Z,5.80
2019-02-27T01:17:40.193Z,5.80
2019-02-27T01:21:03.300Z,5.70
2019-02-27T01:24:26.380Z,5.60
2019-02-27T01:27:49.490Z,5.50
2019-02-27T01:31:12.706Z,5.50
2019-02-27T01:34:35.821Z,5.40
2019-02-27T01:37:59.226Z,5.40
2019-02-27T01:41:24.568Z,5.30
2019-02-27T01:44:47.419Z,5.30
2019-02-27T01:48:10.503Z,5.20
2019-02-27T01:51:33.590Z,5.20
2019-02-27T01:54:56.699Z,5.10
2019-02-27T01:58:19.827Z,5.00
2019-02-27T02:01:42.903Z,5.00
2019-02-27T02:05:06.164Z,5.00
2019-02-27T02:08:30.024Z,4.90
2019-02-27T02:11:53.228Z,4.80
2019-02-27T02:16:20.628Z,4.90
2019-02-27T02:20:37.621Z,4.90
2019-02-27T02:24:42.360Z,4.80
2019-02-27T02:28:54.966Z,4.80
2019-02-27T02:33:10.770Z,4.90
2019-02-27T02:37:18.291Z,4.90
2019-02-27T02:41:47.959Z,4.80
2019-02-27T02:45:51.818Z,4.80
2019-02-27T02:50:17.860Z,4.70
2019-02-27T02:54:37.517Z,4.60
2019-02-27T02:58:51.660Z,4.60
2019-02-27T03:03:04.433Z,4.50
2019-02-27T03:07:21.629Z,4.40
2019-02-27T03:11:22.843Z,4.40
2019-02-27T03:15:40.930Z,4.40
2019-02-27T03:19:50.331Z,4.40
2019-02-27T03:23:52.042Z,4.40
2019-02-27T03:28:21.268Z,4.40
2019-02-27T03:32:41.174Z,4.40
2019-02-27T03:36:48.269Z,4.40
2019-02-27T03:40:45.051Z,4.40
2019-02-27T03:44:57.915Z,4.40
2019-02-27T03:49:24.287Z,4.30
2019-02-27T03:53:32.480Z,4.40
2019-02-27T03:57:34.412Z,4.20
2019-02-27T04:01:18.700Z,4.10
2019-02-27T04:05:48.912Z,4.10
2019-02-27T04:09:12.065Z,4.10
2019-02-27T04:12:35.134Z,4.10
2019-02-27T04:15:58.586Z,4.00
2019-02-27T04:19:21.804Z,3.90
2019-02-27T04:22:44.939Z,4.00
2019-02-27T04:26:08.014Z,3.90
2019-02-27T04:29:31.118Z,3.90
2019-02-27T04:32:54.237Z,3.90
2019-02-27T04:36:17.615Z,3.90
2019-02-27T04:39:40.765Z,3.80
2019-02-27T04:43:03.976Z,3.80
2019-02-27T04:46:27.083Z,3.80
2019-02-27T04:49:50.183Z,3.70
2019-02-27T04:53:13.291Z,3.80
2019-02-27T04:56:36.680Z,3.90
2019-02-27T05:00:00.150Z,4.10
2019-02-27T05:03:25.807Z,4.20
2019-02-27T05:06:48.700Z,4.40
2019-02-27T05:10:11.857Z,4.50
2019-02-27T05:13:34.959Z,4.50
2019-02-27T05:16:59.619Z,4.60
2019-02-27T05:20:22.880Z,4.50
2019-02-27T05:23:46.669Z,4.40
2019-02-27T05:27:09.799Z,4.30
2019-02-27T05:30:32.857Z,4.20
2019-02-27T05:33:56.291Z,4.10
2019-02-27T05:37:19.352Z,4.10
2019-02-27T05:40:42.496Z,4.00
2019-02-27T05:44:06.847Z,4.00
2019-02-27T05:47:29.931Z,4.00
2019-02-27T05:50:53.140Z,3.90
2019-02-27T05:54:16.551Z,3.90
2019-02-27T05:57:39.660Z,3.90
2019-02-27T06:01:05.037Z,3.90
2019-02-27T06:04:29.664Z,3.90
2019-02-27T06:07:52.779Z,3.90
2019-02-27T06:11:27.089Z,3.90
2019-02-27T06:14:54.977Z,3.90
2019-02-27T06:18:22.509Z,4.00
2019-02-27T06:21:43.756Z,4.10
2019-02-27T06:25:32.331Z,4.20
2019-02-27T06:29:34.470Z,4.20
2019-02-27T06:33:39.142Z,4.10
2019-02-27T06:51:23.667Z,4.20
2019-02-27T06:59:33.587Z,4.30
2019-02-27T07:03:52.184Z,4.30
2019-02-27T07:08:37.975Z,4.40
2019-02-27T07:12:39.882Z,4.50
2019-02-27T07:17:12.974Z,4.70
2019-02-27T07:27:16.937Z,5.20
2019-02-27T07:31:52.101Z,5.40
2019-02-27T07:36:03.314Z,5.60
2019-02-27T07:48:56.544Z,6.10
2019-02-27T07:53:06.276Z,6.40
2019-02-27T07:57:36.037Z,6.50
2019-02-27T08:11:35.751Z,7.00
2019-02-27T08:15:29.251Z,7.20
2019-02-27T08:19:52.423Z,7.40
2019-02-27T08:24:51.943Z,7.60
2019-02-27T08:29:16.828Z,7.90
2019-02-27T08:34:13.169Z,8.20
2019-02-27T08:38:23.534Z,8.30
2019-02-27T08:47:33.671Z,8.70
2019-02-27T08:51:12.902Z,9.00
2019-02-27T08:56:18.161Z,9.10
2019-02-27T09:10:46.885Z,9.80
2019-02-27T09:20:16.890Z,10.30
2019-02-27T09:40:38.170Z,11.60
2019-02-27T09:49:50.438Z,13.00
2019-02-27T09:54:55.521Z,14.50
2019-02-27T10:00:09.255Z,16.00
2019-02-27T10:04:10.306Z,16.80
2019-02-27T10:13:25.168Z,19.20
2019-02-27T10:18:19.025Z,19.90
2019-02-27T10:28:04.839Z,21.30
2019-02-27T10:42:50.248Z,22.70
2019-02-27T11:02:03.912Z,22.70
2019-02-27T11:11:02.446Z,23.00
2019-02-27T11:20:06.412Z,23.60
2019-02-27T11:33:56.597Z,25.20
2019-02-27T11:38:06.307Z,26.30
2019-02-27T11:47:24.901Z,27.70
2019-02-27T11:56:20.244Z,27.80
2019-02-27T12:15:52.220Z,30.20
2019-02-27T12:19:57.983Z,29.60
2019-02-27T12:24:50.313Z,29.50
2019-02-27T12:29:54.378Z,30.00
2019-02-27T12:33:53.599Z,30.80
2019-02-27T12:38:24.651Z,31.30
2019-02-27T12:53:33.325Z,31.40
2019-02-27T12:57:25.716Z,31.30
2019-02-27T13:17:00.224Z,32.70
2019-02-27T13:21:48.346Z,32.50
2019-02-27T13:31:27.742Z,32.50
2019-02-27T13:35:42.475Z,32.50
2019-02-27T14:05:15.785Z,34.00
2019-02-27T14:09:25.194Z,35.40
2019-02-27T14:13:26.493Z,35.30
2019-02-27T14:17:47.422Z,35.80
2019-02-27T14:21:42.777Z,35.40
2019-02-27T14:25:49.466Z,35.90
2019-02-27T14:29:54.719Z,36.80
2019-02-27T14:33:51.152Z,36.90
2019-02-27T14:38:01.768Z,36.40
2019-02-27T14:42:09.687Z,36.70
2019-02-27T14:50:45.869Z,36.70
2019-02-27T14:55:21.241Z,37.50
2019-02-27T15:00:25.462Z,37.10
2019-02-27T15:09:47.808Z,37.00
2019-02-27T15:14:03.895Z,37.30
2019-02-27T15:18:27.966Z,37.40
2019-02-27T15:23:25.098Z,37.30
2019-02-27T15:27:46.836Z,37.40
2019-02-27T15:36:48.111Z,37.00
2019-02-27T15:41:15.161Z,36.60
2019-02-27T15:45:09.055Z,36.50
2019-02-27T16:15:05.745Z,34.70
2019-02-27T16:29:48.547Z,27.70
2019-02-27T16:48:46.826Z,21.60
2019-02-27T16:53:38.360Z,21.00
2019-02-27T17:02:52.065Z,20.20
2019-02-27T17:07:09.284Z,19.70
2019-02-27T17:12:25.375Z,19.40
2019-02-27T17:16:23.259Z,19.00
2019-02-27T17:34:16.569Z,17.30
2019-02-27T17:47:54.874Z,16.30
2019-02-27T17:51:33.917Z,16.00
2019-02-27T17:56:02.863Z,15.70
2019-02-27T18:00:17.699Z,15.50
2019-02-27T18:09:04.903Z,15.00
2019-02-27T18:12:55.905Z,14.80
2019-02-27T18:17:35.693Z,14.70
2019-02-27T18:21:16.909Z,14.60
2019-02-27T18:25:38.641Z,14.40
2019-02-27T18:29:43.748Z,14.30
2019-02-27T18:34:03.990Z,14.20
2019-02-27T18:38:44.066Z,14.10
2019-02-27T18:43:35.090Z,13.90
2019-02-27T18:47:58.414Z,13.80
2019-02-27T18:52:21.343Z,13.60
2019-02-27T19:00:46.545Z,13.40
2019-02-27T19:19:27.233Z,12.80
2019-02-27T19:24:03.586Z,12.60
2019-02-27T19:28:44.881Z,12.60
2019-02-27T19:38:14.427Z,12.40
2019-02-27T19:51:10.612Z,12.20
2019-02-27T19:55:54.299Z,12.20
2019-02-27T20:15:25.699Z,12.00
2019-02-27T20:19:48.375Z,11.80
2019-02-27T20:24:43.121Z,11.70
2019-02-27T20:28:41.366Z,11.60
2019-02-27T20:32:28.396Z,11.40
2019-02-27T20:36:42.648Z,11.30
2019-02-27T20:40:48.825Z,11.10
2019-02-27T20:50:52.096Z,10.90
2019-02-27T20:54:47.882Z,10.80
2019-02-27T20:58:50.900Z,10.60
2019-02-27T21:02:42.759Z,10.70
2019-02-27T21:10:37.547Z,10.70
2019-02-27T21:14:29.023Z,10.70
2019-02-27T21:18:53.872Z,10.70
2019-02-27T21:27:39.843Z,10.40
2019-02-27T21:32:18.590Z,10.40
2019-02-27T21:42:03.592Z,10.20
2019-02-27T21:47:22.983Z,10.10
2019-02-27T21:51:21.440Z,9.90
2019-02-27T21:55:18.958Z,9.70
2019-02-27T22:05:01.080Z,9.50
2019-02-27T22:09:44.537Z,9.50
2019-02-27T22:14:01.138Z,9.40
2019-02-27T22:18:01.367Z,9.30
2019-02-27T22:22:41.564Z,9.30
2019-02-27T22:27:12.744Z,9.30
2019-02-27T22:36:43.990Z,9.20
2019-02-27T22:45:19.252Z,9.20
2019-02-27T22:49:42.020Z,9.10
2019-02-27T23:14:19.756Z,8.80
2019-02-27T23:19:13.806Z,8.60
2019-02-27T23:23:44.049Z,8.50
2019-02-27T23:33:11.033Z,8.50
2019-02-27T23:37:24.242Z,8.70
2019-02-27T23:41:32.493Z,8.60
2019-02-27T23:45:45.259Z,8.50
